Time;durP1;ratioP1;P1;durP2;ratioP2;P2;SDS_P1;SDS_P2;PMS_P1;PMS_P2;Temp;Humidity;BMP_temperature;BMP_pressure;BME280_temperature;BME280_humidity;BME280_pressure;Samples;Min_cycle;Max_cycle;Signal;HPM_P1;HPM_P2
2021/04/19 00:02:18;;;;;;;9.43;5.10;;;8.90;70.70;;;;;;5055353;28;20107;-81
2021/04/19 00:04:43;;;;;;;8.73;3.85;;;8.90;70.40;;;;;;5053423;28;20021;-80
2021/04/19 00:07:09;;;;;;;8.48;4.82;;;8.90;70.50;;;;;;5055000;28;20074;-81
2021/04/19 00:09:35;;;;;;;11.38;4.78;;;8.80;71.30;;;;;;5055684;28;20017;-80
2021/04/19 00:12:02;;;;;;;10.85;5.20;;;8.80;72.70;;;;;;5054326;28;20055;-81
2021/04/19 00:14:28;;;;;;;9.77;4.45;;;8.70;71.70;;;;;;5053335;28;20164;-81
2021/04/19 00:16:53;;;;;;;8.65;3.78;;;8.70;72.30;;;;;;5053656;28;20116;-82
2021/04/19 00:19:19;;;;;;;8.93;4.57;;;8.70;72.40;;;;;;5053465;28;20020;-81
2021/04/19 00:21:44;;;;;;;8.52;4.15;;;8.60;72.70;;;;;;5053344;28;20032;-81
2021/04/19 00:24:10;;;;;;;13.15;4.97;;;8.60;73.20;;;;;;5053415;28;20020;-82
2021/04/19 00:26:35;;;;;;;7.78;3.95;;;8.60;73.60;;;;;;5053191;28;20017;-82
2021/04/19 00:29:01;;;;;;;7.20;3.55;;;8.50;73.50;;;;;;5053279;28;20082;-81
2021/04/19 00:31:27;;;;;;;12.43;5.13;;;8.50;74.10;;;;;;5052196;28;20013;-83
2021/04/19 00:33:52;;;;;;;10.43;4.32;;;8.40;73.70;;;;;;5053093;28;20017;-82
2021/04/19 00:36:18;;;;;;;10.93;4.90;;;8.40;74.40;;;;;;5053337;28;20028;-81
2021/04/19 00:38:44;;;;;;;10.75;5.15;;;8.40;74.20;;;;;;5053777;28;20028;-82
2021/04/19 00:41:11;;;;;;;12.90;5.35;;;8.40;74.20;;;;;;5053238;28;20464;-82
2021/04/19 00:43:38;;;;;;;11.38;5.32;;;8.30;74.10;;;;;;5052879;28;20033;-82
2021/04/19 00:46:04;;;;;;;13.77;5.10;;;8.30;74.20;;;;;;5054375;28;20052;-82
2021/04/19 00:48:34;;;;;;;9.85;5.55;;;8.30;74.10;;;;;;5052893;28;20029;-82
2021/04/19 00:51:00;;;;;;;13.18;5.40;;;8.20;77.20;;;;;;5052799;28;20374;-81
2021/04/19 00:53:27;;;;;;;9.68;5.60;;;8.30;75.20;;;;;;5052829;28;20013;-81
2021/04/19 00:55:54;;;;;;;9.20;4.13;;;8.20;74.50;;;;;;5052556;28;20051;-81
2021/04/19 00:58:24;;;;;;;11.25;6.10;;;8.20;77.20;;;;;;5052753;28;20045;-81
2021/04/19 01:00:50;;;;;;;9.18;5.15;;;8.20;75.30;;;;;;5052508;28;20115;-80
2021/04/19 01:03:16;;;;;;;9.75;5.68;;;8.20;74.90;;;;;;5052566;28;20433;-79
2021/04/19 01:05:42;;;;;;;11.93;6.55;;;8.10;74.60;;;;;;5052499;28;20024;-80
2021/04/19 01:08:09;;;;;;;11.45;6.53;;;8.10;74.50;;;;;;5053946;28;20373;-80
2021/04/19 01:10:36;;;;;;;13.90;6.50;;;8.10;74.50;;;;;;5053738;28;20079;-80
2021/04/19 01:13:03;;;;;;;12.38;6.35;;;8.00;74.70;;;;;;5052350;28;20045;-79
2021/04/19 01:15:28;;;;;;;12.60;7.05;;;8.00;75.30;;;;;;5052833;28;20104;-80
2021/04/19 01:17:54;;;;;;;14.48;6.68;;;8.00;74.90;;;;;;5052255;28;20523;-80
2021/04/19 01:20:23;;;;;;;12.82;6.97;;;7.90;75.20;;;;;;5052337;28;20020;-80
2021/04/19 01:22:49;;;;;;;12.32;7.72;;;7.90;75.50;;;;;;5052986;28;20028;-79
2021/04/19 01:25:21;;;;;;;12.60;7.47;;;7.80;75.60;;;;;;5053373;28;20025;-81
2021/04/19 01:27:47;;;;;;;16.65;7.65;;;7.80;75.90;;;;;;5053502;28;20064;-80
2021/04/19 01:30:14;;;;;;;14.80;7.05;;;7.80;76.30;;;;;;5051966;28;20033;-79
2021/04/19 01:32:41;;;;;;;13.70;7.38;;;7.70;76.50;;;;;;5051599;28;20075;-80
2021/04/19 01:35:07;;;;;;;14.40;7.60;;;7.70;76.50;;;;;;5052028;28;20024;-80
2021/04/19 01:37:32;;;;;;;14.32;8.30;;;7.70;76.60;;;;;;5053238;28;20028;-80
2021/04/19 01:39:58;;;;;;;16.45;7.88;;;7.70;77.10;;;;;;5053143;28;20025;-80
2021/04/19 01:42:23;;;;;;;15.82;8.35;;;7.60;77.50;;;;;;5051530;28;20013;-80
2021/04/19 01:44:49;;;;;;;20.20;8.77;;;7.60;78.00;;;;;;5051544;28;20013;-80
2021/04/19 01:47:16;;;;;;;15.13;8.77;;;7.60;78.10;;;;;;5052951;28;20062;-79
2021/04/19 01:49:42;;;;;;;17.70;8.88;;;7.50;78.50;;;;;;5052537;28;20460;-80
2021/04/19 01:52:08;;;;;;;15.27;8.60;;;7.50;78.60;;;;;;5051633;28;20021;-80
2021/04/19 01:54:36;;;;;;;13.90;8.32;;;7.50;78.80;;;;;;5051364;28;20043;-82
2021/04/19 01:57:03;;;;;;;15.85;8.25;;;7.50;78.90;;;;;;5051166;28;20017;-81
2021/04/19 01:59:29;;;;;;;15.25;8.35;;;7.40;79.10;;;;;;5051540;28;20017;-81
2021/04/19 02:02:06;;;;;;;20.25;9.95;;;7.40;79.60;;;;;;5051285;28;20017;-82
2021/04/19 02:04:41;;;;;;;17.98;9.82;;;7.40;79.50;;;;;;5051657;28;20020;-82
2021/04/19 02:07:24;;;;;;;18.58;9.93;;;7.30;80.90;;;;;;5052654;28;20060;-82
2021/04/19 02:10:14;;;;;;;27.02;9.63;;;7.30;80.50;;;;;;5051128;28;20032;-81
2021/04/19 02:12:47;;;;;;;20.58;11.10;;;7.20;81.00;;;;;;5050840;28;20075;-81
2021/04/19 02:15:23;;;;;;;17.95;9.40;;;7.20;81.30;;;;;;5054685;28;20430;-81
2021/04/19 02:17:54;;;;;;;19.50;9.82;;;7.10;81.30;;;;;;5051810;28;20021;-80
2021/04/19 02:20:41;;;;;;;17.40;9.80;;;7.10;81.70;;;;;;5052637;28;20108;-80
2021/04/19 02:23:19;;;;;;;20.10;10.02;;;7.00;81.80;;;;;;5052579;28;20028;-82
2021/04/19 02:25:46;;;;;;;19.20;9.45;;;7.00;81.90;;;;;;5051109;28;20100;-83
2021/04/19 02:28:21;;;;;;;22.50;11.23;;;7.00;82.10;;;;;;5051438;28;20461;-83
2021/04/19 02:30:51;;;;;;;21.90;10.52;;;6.90;82.40;;;;;;5051050;28;20035;-83
2021/04/19 02:33:19;;;;;;;18.05;9.68;;;6.90;82.50;;;;;;5051370;28;20461;-83
2021/04/19 02:35:46;;;;;;;17.25;9.60;;;6.90;83.30;;;;;;5051066;28;20420;-82
2021/04/19 02:38:18;;;;;;;17.00;9.88;;;6.90;82.70;;;;;;5051109;28;20112;-82
2021/04/19 02:40:45;;;;;;;17.23;10.00;;;6.80;82.70;;;;;;5050921;28;20032;-82
2021/04/19 02:43:11;;;;;;;17.77;9.70;;;6.80;82.60;;;;;;5051031;28;20017;-80
2021/04/19 02:45:38;;;;;;;20.10;10.90;;;6.80;82.80;;;;;;5051447;28;20013;-83
2021/04/19 02:48:05;;;;;;;17.75;10.77;;;6.80;83.10;;;;;;5052946;28;20462;-83
2021/04/19 02:50:32;;;;;;;18.75;10.80;;;6.80;83.40;;;;;;5052092;28;20031;-82
2021/04/19 02:53:00;;;;;;;17.10;10.38;;;6.70;83.90;;;;;;5050804;28;20051;-82
2021/04/19 02:55:28;;;;;;;19.40;10.15;;;6.70;83.60;;;;;;5055117;28;20021;-82
2021/04/19 02:58:03;;;;;;;21.58;12.80;;;6.70;83.60;;;;;;5054602;28;20021;-82
2021/04/19 03:00:40;;;;;;;17.67;10.80;;;6.70;83.90;;;;;;5055168;28;20043;-82
2021/04/19 03:03:10;;;;;;;20.05;11.20;;;6.70;84.40;;;;;;5054883;28;20025;-82
2021/04/19 03:05:38;;;;;;;26.40;11.23;;;6.60;85.00;;;;;;5055025;28;20453;-82
2021/04/19 03:08:10;;;;;;;21.88;11.27;;;6.60;85.30;;;;;;5056532;28;20127;-82
2021/04/19 03:10:38;;;;;;;20.52;11.10;;;6.60;85.20;;;;;;5056673;28;20032;-81
2021/04/19 03:13:07;;;;;;;22.35;12.48;;;6.60;85.90;;;;;;5055519;28;20056;-81
2021/04/19 03:15:38;;;;;;;20.70;11.80;;;6.60;85.40;;;;;;5056984;28;20021;-81
2021/04/19 03:18:07;;;;;;;21.75;11.73;;;6.60;86.20;;;;;;5054676;28;20021;-81
2021/04/19 03:21:05;;;;;;;21.80;11.75;;;6.60;85.70;;;;;;5054610;28;20017;-82
2021/04/19 03:23:33;;;;;;;20.20;12.18;;;6.60;85.70;;;;;;5050033;28;20474;-81
2021/04/19 03:26:01;;;;;;;26.55;12.80;;;6.60;85.50;;;;;;5054196;28;20021;-81
2021/04/19 03:28:28;;;;;;;11.18;6.57;;;6.60;85.40;;;;;;5054388;28;20047;-81
2021/04/19 03:30:54;;;;;;;18.05;10.23;;;6.60;85.60;;;;;;5055867;28;20427;-80
2021/04/19 03:33:20;;;;;;;23.55;12.82;;;6.50;85.80;;;;;;5054366;28;20013;-80
2021/04/19 03:35:46;;;;;;;26.73;12.65;;;6.50;85.70;;;;;;5054006;28;20025;-80
2021/04/19 03:38:17;;;;;;;18.65;11.25;;;6.50;85.90;;;;;;5054193;28;20017;-81
2021/04/19 03:40:43;;;;;;;21.83;12.90;;;6.50;86.00;;;;;;5055327;28;20043;-81
2021/04/19 03:43:15;;;;;;;22.13;12.85;;;6.50;86.30;;;;;;5055515;28;20190;-81
2021/04/19 03:45:42;;;;;;;19.67;12.75;;;6.50;86.50;;;;;;5054266;28;20021;-81
2021/04/19 03:48:12;;;;;;;26.20;14.63;;;6.50;86.60;;;;;;5054135;28;20458;-81
2021/04/19 03:50:50;;;;;;;23.10;13.48;;;6.50;86.60;;;;;;5054996;28;20129;-81
2021/04/19 03:53:17;;;;;;;25.73;13.07;;;6.50;86.90;;;;;;5054107;28;20021;-80
2021/04/19 03:55:47;;;;;;;22.83;13.27;;;6.50;86.80;;;;;;5053648;28;20112;-82
2021/04/19 03:58:14;;;;;;;22.50;13.25;;;6.50;86.50;;;;;;5072636;28;20111;-81
2021/04/19 04:00:42;;;;;;;24.85;13.90;;;6.50;86.50;;;;;;5073871;28;20086;-82
2021/04/19 04:03:09;;;;;;;25.23;14.93;;;6.50;86.50;;;;;;5073568;28;20051;-81
2021/04/19 04:05:35;;;;;;;22.27;14.05;;;6.60;86.70;;;;;;5073345;28;20063;-82
2021/04/19 04:08:02;;;;;;;24.75;13.45;;;6.60;86.70;;;;;;5073245;28;20048;-82
2021/04/19 04:10:28;;;;;;;24.67;13.95;;;6.60;86.50;;;;;;5074965;28;20074;-82
2021/04/19 04:12:54;;;;;;;26.17;14.07;;;6.60;86.50;;;;;;5073079;28;20025;-82
2021/04/19 04:15:20;;;;;;;23.23;13.32;;;6.60;86.50;;;;;;5073752;28;20077;-82
2021/04/19 04:17:46;;;;;;;22.13;11.68;;;6.60;87.20;;;;;;5056372;28;20126;-81
2021/04/19 04:20:12;;;;;;;27.88;14.95;;;6.60;86.30;;;;;;5073369;28;20013;-82
2021/04/19 04:22:38;;;;;;;22.20;13.32;;;6.60;86.40;;;;;;5073210;28;20017;-80
2021/04/19 04:25:05;;;;;;;27.48;14.50;;;6.60;86.60;;;;;;5074149;28;20158;-81
2021/04/19 04:27:31;;;;;;;22.73;13.75;;;6.70;86.70;;;;;;5073328;28;20461;-80
2021/04/19 04:29:56;;;;;;;25.55;14.45;;;6.70;86.70;;;;;;5074333;28;20038;-79
2021/04/19 04:32:22;;;;;;;24.35;14.68;;;6.70;86.60;;;;;;5073230;28;20357;-81
2021/04/19 04:34:48;;;;;;;22.85;14.23;;;6.70;86.80;;;;;;5073042;28;20356;-81
2021/04/19 04:37:13;;;;;;;23.83;13.07;;;6.70;86.80;;;;;;5073147;28;20166;-80
2021/04/19 04:39:39;;;;;;;27.95;14.15;;;6.70;86.70;;;;;;5073165;28;20078;-81
2021/04/19 04:42:08;;;;;;;29.90;15.13;;;6.80;86.70;;;;;;5072731;28;20021;-81
2021/04/19 04:44:38;;;;;;;31.80;15.00;;;6.80;86.60;;;;;;5073160;28;20408;-81
2021/04/19 04:47:12;;;;;;;26.98;16.65;;;6.80;86.50;;;;;;5073182;28;20028;-82
2021/04/19 04:49:41;;;;;;;28.40;14.98;;;6.80;86.70;;;;;;5073040;28;20063;-82
2021/04/19 04:52:08;;;;;;;29.65;16.13;;;6.80;86.80;;;;;;5072917;28;20021;-83
2021/04/19 04:54:36;;;;;;;25.88;16.05;;;6.80;86.60;;;;;;5073375;28;20104;-84
2021/04/19 04:57:03;;;;;;;28.38;16.95;;;6.90;87.10;;;;;;5065634;28;20020;-86
2021/04/19 04:59:30;;;;;;;27.80;16.58;;;6.90;87.50;;;;;;5053101;28;20028;-85
2021/04/19 05:01:57;;;;;;;28.40;15.63;;;6.90;87.80;;;;;;5053148;28;20107;-84
2021/04/19 05:04:24;;;;;;;26.83;16.23;;;6.90;87.50;;;;;;5054727;28;20057;-85
2021/04/19 05:06:51;;;;;;;29.48;18.27;;;6.90;88.10;;;;;;5053750;28;20028;-86
2021/04/19 05:09:17;;;;;;;28.45;17.48;;;7.00;88.10;;;;;;5055580;28;20044;-87
2021/04/19 05:11:43;;;;;;;26.17;17.92;;;7.00;88.30;;;;;;5057139;28;20103;-86
2021/04/19 05:14:09;;;;;;;28.33;16.95;;;7.00;88.90;;;;;;5071637;28;20037;-87
2021/04/19 05:16:35;;;;;;;25.98;15.88;;;7.00;88.40;;;;;;5057659;28;20108;-87
2021/04/19 05:19:03;;;;;;;26.27;16.30;;;7.00;88.10;;;;;;5053415;28;20061;-86
2021/04/19 05:21:29;;;;;;;28.20;17.27;;;7.00;88.30;;;;;;5053560;28;20048;-87
2021/04/19 05:23:56;;;;;;;28.98;17.25;;;7.00;88.70;;;;;;5052945;28;20634;-88
2021/04/19 05:26:21;;;;;;;29.10;16.00;;;7.00;88.90;;;;;;5053523;28;20086;-86
2021/04/19 05:28:48;;;;;;;28.73;16.98;;;7.00;88.90;;;;;;5053504;28;20064;-87
2021/04/19 05:31:14;;;;;;;33.67;17.80;;;7.10;88.70;;;;;;5054217;28;20035;-86
2021/04/19 05:33:40;;;;;;;39.42;17.95;;;7.10;88.90;;;;;;5053390;28;20052;-86
2021/04/19 05:36:10;;;;;;;29.55;17.02;;;7.10;88.70;;;;;;5062029;28;20468;-81
2021/04/19 05:38:37;;;;;;;31.55;18.80;;;7.10;89.10;;;;;;5075379;28;20035;-82
2021/04/19 05:41:03;;;;;;;27.42;17.52;;;7.10;89.80;;;;;;5059802;28;20021;-81
2021/04/19 05:43:29;;;;;;;28.80;18.00;;;7.10;89.80;;;;;;5064132;28;20028;-84
2021/04/19 05:45:57;;;;;;;29.48;16.27;;;7.10;89.80;;;;;;5058021;28;20083;-85
2021/04/19 05:48:22;;;;;;;26.88;16.85;;;7.20;89.70;;;;;;5052896;28;20472;-85
2021/04/19 05:50:52;;;;;;;20.67;13.07;;;7.10;89.40;;;;;;5052957;28;20017;-85
2021/04/19 05:53:17;;;;;;;20.27;12.13;;;7.10;89.50;;;;;;5052660;28;20454;-84
2021/04/19 05:55:44;;;;;;;23.75;13.30;;;7.20;89.40;;;;;;5052447;28;20029;-88
2021/04/19 05:58:31;;;;;;;32.63;17.70;;;7.20;89.20;;;;;;5051824;28;20029;-86
2021/04/19 06:01:05;;;;;;;28.75;16.40;;;7.20;89.60;;;;;;5052266;28;20025;-84
2021/04/19 06:03:46;;;;;;;32.97;19.45;;;7.20;89.90;;;;;;5052463;28;20112;-84
2021/04/19 06:06:16;;;;;;;33.90;21.05;;;7.30;89.90;;;;;;5060448;28;20021;-83
2021/04/19 06:08:48;;;;;;;33.25;20.45;;;7.30;90.00;;;;;;5059327;28;20028;-82
2021/04/19 06:11:21;;;;;;;26.20;16.17;;;7.30;90.30;;;;;;5058386;28;20787;-82
2021/04/19 06:13:49;;;;;;;30.13;17.73;;;7.30;90.10;;;;;;5059626;28;20041;-83
2021/04/19 06:16:15;;;;;;;33.20;19.27;;;7.40;90.10;;;;;;5072591;28;20020;-83
2021/04/19 06:18:44;;;;;;;25.95;14.35;;;7.40;90.10;;;;;;5071553;28;20597;-83
2021/04/19 06:21:10;;;;;;;29.35;18.00;;;7.50;90.10;;;;;;5071095;28;20506;-84
2021/04/19 06:23:37;;;;;;;33.63;21.20;;;7.50;89.90;;;;;;5071427;28;20020;-84
2021/04/19 06:26:05;;;;;;;35.55;20.88;;;7.60;90.10;;;;;;5070477;28;20027;-80
2021/04/19 06:28:31;;;;;;;28.77;18.92;;;7.60;90.40;;;;;;5071265;28;20020;-80
2021/04/19 06:30:58;;;;;;;36.90;22.08;;;7.70;90.40;;;;;;5071369;28;20373;-80
2021/04/19 06:33:26;;;;;;;31.10;19.25;;;7.70;90.40;;;;;;5071951;28;20073;-81
2021/04/19 06:35:52;;;;;;;29.98;20.00;;;7.70;90.20;;;;;;5071844;28;20085;-81
2021/04/19 06:38:17;;;;;;;29.08;17.48;;;7.70;90.20;;;;;;5071928;28;20473;-80
2021/04/19 06:40:45;;;;;;;34.42;19.38;;;7.70;90.30;;;;;;5070650;28;20029;-79
2021/04/19 06:43:11;;;;;;;23.35;14.55;;;7.70;90.20;;;;;;5071098;28;20088;-81
2021/04/19 06:45:38;;;;;;;29.95;17.27;;;7.70;90.20;;;;;;5070923;28;20020;-77
2021/04/19 06:48:06;;;;;;;26.90;17.80;;;7.70;90.30;;;;;;5071989;28;20051;-78
2021/04/19 06:50:32;;;;;;;37.35;24.25;;;7.60;90.20;;;;;;5070595;28;20039;-78
2021/04/19 06:52:58;;;;;;;40.55;25.02;;;7.60;90.30;;;;;;5070021;28;20029;-79
2021/04/19 06:55:24;;;;;;;39.70;26.15;;;7.60;90.60;;;;;;5070457;28;20029;-77
2021/04/19 06:58:00;;;;;;;36.33;24.63;;;7.60;90.90;;;;;;5055996;28;20079;-78
2021/04/19 07:00:28;;;;;;;49.08;25.95;;;7.70;91.10;;;;;;5050643;28;20438;-78
2021/04/19 07:02:59;;;;;;;41.13;26.15;;;7.70;91.00;;;;;;5050395;28;20017;-77
2021/04/19 07:05:35;;;;;;;44.88;27.58;;;7.80;91.00;;;;;;5052116;28;20021;-77
2021/04/19 07:08:15;;;;;;;40.60;26.90;;;7.80;91.10;;;;;;5052086;28;20099;-77
2021/04/19 07:10:44;;;;;;;48.05;29.38;;;7.80;91.30;;;;;;5052012;28;20454;-78
2021/04/19 07:13:11;;;;;;;37.25;24.90;;;8.00;91.60;;;;;;5050133;28;20064;-78
2021/04/19 07:15:39;;;;;;;42.25;26.73;;;8.20;91.60;;;;;;5050521;28;20025;-78
2021/04/19 07:18:06;;;;;;;45.33;28.05;;;8.40;91.70;;;;;;5051842;28;20056;-77
2021/04/19 07:20:32;;;;;;;38.35;26.88;;;8.60;91.60;;;;;;5050322;28;20074;-77
2021/04/19 07:22:59;;;;;;;39.70;25.63;;;8.80;91.40;;;;;;5050093;28;20013;-78
2021/04/19 07:25:25;;;;;;;39.15;26.40;;;9.00;91.20;;;;;;5051863;28;20021;-79
2021/04/19 07:27:51;;;;;;;34.88;23.92;;;9.30;90.60;;;;;;5050357;28;20058;-77
2021/04/19 07:30:17;;;;;;;40.30;25.73;;;9.50;90.40;;;;;;5050107;28;20032;-77
2021/04/19 07:32:44;;;;;;;33.78;24.85;;;9.80;90.30;;;;;;5050461;28;20021;-77
2021/04/19 07:35:12;;;;;;;35.30;23.45;;;9.90;90.20;;;;;;5050014;28;20017;-77
2021/04/19 07:37:38;;;;;;;32.15;19.90;;;10.00;90.00;;;;;;5059207;28;20471;-78
2021/04/19 07:40:05;;;;;;;32.30;23.10;;;10.10;89.00;;;;;;5070565;28;20063;-77
2021/04/19 07:42:33;;;;;;;31.13;19.45;;;10.10;89.20;;;;;;5073964;28;20154;-77
2021/04/19 07:44:59;;;;;;;17.58;11.80;;;10.20;89.10;;;;;;5075100;28;20338;-76
2021/04/19 07:47:35;;;;;;;25.52;15.80;;;10.40;88.40;;;;;;5075296;28;20027;-78
2021/04/19 07:50:05;;;;;;;23.05;17.67;;;10.70;88.00;;;;;;5074844;28;20028;-78
2021/04/19 07:52:33;;;;;;;11.65;7.72;;;10.90;87.40;;;;;;5075521;28;20012;-76
2021/04/19 07:55:13;;;;;;;21.73;14.65;;;11.20;82.50;;;;;;5075008;28;20016;-77
2021/04/19 07:57:39;;;;;;;21.55;15.10;;;11.60;83.90;;;;;;5061229;28;20071;-77
2021/04/19 08:00:07;;;;;;;14.88;8.70;;;11.80;81.50;;;;;;5054485;28;20369;-78
2021/04/19 08:02:33;;;;;;;21.35;14.27;;;11.80;80.40;;;;;;5053677;28;20104;-77
2021/04/19 08:05:02;;;;;;;16.55;11.32;;;11.80;81.80;;;;;;5054378;28;20118;-77
2021/04/19 08:07:29;;;;;;;18.50;11.68;;;11.70;81.60;;;;;;5053665;28;20049;-76
2021/04/19 08:10:03;;;;;;;17.25;9.90;;;11.60;82.50;;;;;;5053449;28;20414;-76
2021/04/19 08:12:38;;;;;;;15.05;9.70;;;11.60;82.90;;;;;;5053542;28;20441;-76
2021/04/19 08:15:17;;;;;;;18.10;12.52;;;11.60;83.30;;;;;;5053154;28;20119;-75
2021/04/19 08:17:43;;;;;;;15.57;11.02;;;11.50;83.70;;;;;;5053436;28;20070;-76
2021/04/19 08:20:11;;;;;;;20.35;13.70;;;11.50;84.50;;;;;;5054504;28;20078;-76
2021/04/19 08:22:37;;;;;;;18.35;13.93;;;11.70;84.10;;;;;;5053367;28;20099;-75
2021/04/19 08:25:16;;;;;;;14.43;10.15;;;11.80;84.00;;;;;;5053042;28;20111;-76
2021/04/19 08:27:42;;;;;;;24.05;18.08;;;11.90;83.00;;;;;;5053181;28;20115;-75
2021/04/19 08:30:10;;;;;;;21.58;15.70;;;12.10;83.50;;;;;;5054101;28;20028;-76
2021/04/19 08:32:37;;;;;;;20.02;14.80;;;12.40;83.50;;;;;;5070257;28;20108;-76
2021/04/19 08:35:05;;;;;;;17.85;14.20;;;12.70;81.70;;;;;;5070433;28;20025;-75
2021/04/19 08:37:31;;;;;;;15.30;11.05;;;13.10;81.30;;;;;;5082252;28;20012;-76
2021/04/19 08:40:01;;;;;;;15.18;11.23;;;13.30;80.00;;;;;;5064994;28;20028;-75
2021/04/19 08:45:58;;;;;;;;;;;;;;;;;;;;;
2021/04/19 08:49:03;;;;;;;;;;;;;;;;;;;;;
2021/04/19 08:51:33;;;;;;;8.55;4.97;;;12.60;76.50;;;;;;5079268;28;20068;-78
2021/04/19 08:54:05;;;;;;;16.40;9.88;;;12.50;75.90;;;;;;5073214;28;20031;-76
2021/04/19 08:59:59;;;;;;;12.05;7.35;;;13.20;77.70;;;;;;5067087;28;20071;-77
2021/04/19 09:02:59;;;;;;;;;;;;;;;;;;;;;
2021/04/19 09:05:25;;;;;;;20.50;13.82;;;13.80;73.50;;;;;;5077543;28;20037;-76
2021/04/19 09:08:12;;;;;;;18.67;14.32;;;13.80;74.00;;;;;;5066501;28;20100;-76
2021/04/19 09:10:57;;;;;;;9.27;5.28;;;13.80;75.10;;;;;;5071690;28;20032;-76
2021/04/19 09:13:36;;;;;;;17.45;10.57;;;13.80;73.50;;;;;;5089362;28;20492;-76
2021/04/19 09:16:25;;;;;;;10.50;5.38;;;13.70;74.10;;;;;;5061759;28;20020;-76
2021/04/19 09:18:54;;;;;;;15.88;11.80;;;13.60;74.20;;;;;;5080130;28;20066;-75
2021/04/19 09:21:42;;;;;;;15.15;9.20;;;13.50;74.80;;;;;;5087050;28;20081;-76
2021/04/19 09:24:13;;;;;;;20.10;12.20;;;13.60;75.50;;;;;;5070373;28;20070;-76
2021/04/19 09:26:43;;;;;;;8.68;5.28;;;13.80;75.40;;;;;;5081851;28;20012;-76
2021/04/19 09:29:08;;;;;;;13.55;7.63;;;14.00;73.60;;;;;;5085572;28;20025;-77
2021/04/19 09:31:56;;;;;;;13.45;10.48;;;14.20;73.80;;;;;;5091107;28;20084;-76
2021/04/19 09:34:49;;;;;;;14.45;11.55;;;14.20;73.80;;;;;;5078776;28;20020;-75
2021/04/19 09:37:18;;;;;;;14.13;10.25;;;14.30;72.90;;;;;;5073296;28;20043;-77
2021/04/19 09:39:49;;;;;;;13.68;10.63;;;14.50;72.90;;;;;;5072141;28;20066;-79
2021/04/19 09:42:16;;;;;;;14.65;10.20;;;14.70;70.20;;;;;;5071764;28;20013;-77
2021/04/19 09:44:50;;;;;;;14.13;10.35;;;14.70;70.70;;;;;;5071922;28;20420;-77
2021/04/19 09:47:50;;;;;;;12.25;9.68;;;14.60;69.90;;;;;;5071393;28;20020;-76
2021/04/19 09:50:21;;;;;;;16.65;10.25;;;14.50;71.20;;;;;;5072590;28;20020;-76
2021/04/19 09:52:52;;;;;;;11.23;7.88;;;14.70;71.60;;;;;;5072925;28;20020;-76
2021/04/19 09:55:22;;;;;;;11.73;9.23;;;14.90;71.00;;;;;;5072438;28;20040;-76
2021/04/19 09:57:48;;;;;;;14.63;9.27;;;15.10;69.00;;;;;;5056351;28;20334;-74
2021/04/19 10:00:16;;;;;;;11.23;7.10;;;15.10;68.00;;;;;;5051338;28;20112;-77
2021/04/19 10:02:43;;;;;;;9.40;7.50;;;15.00;68.30;;;;;;5052774;28;20013;-78
2021/04/19 10:05:11;;;;;;;14.43;9.80;;;15.10;69.10;;;;;;5052207;28;20020;-77
2021/04/19 10:07:43;;;;;;;13.50;8.55;;;15.30;67.50;;;;;;5051304;28;20075;-78
2021/04/19 10:10:10;;;;;;;12.40;8.95;;;15.40;68.40;;;;;;5050998;28;20021;-74
2021/04/19 10:12:44;;;;;;;10.82;8.45;;;15.60;67.00;;;;;;5052221;28;20518;-76
2021/04/19 10:15:21;;;;;;;13.05;10.40;;;15.40;66.00;;;;;;5050866;28;20033;-77
2021/04/19 10:17:48;;;;;;;7.65;4.63;;;15.30;67.00;;;;;;5052273;28;20124;-77
2021/04/19 10:20:19;;;;;;;9.60;5.90;;;15.20;69.00;;;;;;5058910;28;20479;-74
2021/04/19 10:22:46;;;;;;;12.80;9.63;;;15.00;69.50;;;;;;5072191;28;20457;-75
2021/04/19 10:25:12;;;;;;;12.88;9.25;;;14.90;67.20;;;;;;5070976;28;20013;-75
2021/04/19 10:27:39;;;;;;;11.65;9.77;;;14.80;67.50;;;;;;5071139;28;20461;-76
2021/04/19 10:30:15;;;;;;;9.68;7.03;;;14.70;67.90;;;;;;5072065;28;20025;-75
2021/04/19 10:32:43;;;;;;;10.20;7.68;;;14.80;69.60;;;;;;5072751;28;20024;-76
2021/04/19 10:35:35;;;;;;;14.10;10.30;;;14.90;69.00;;;;;;5070877;28;20051;-76
2021/04/19 10:38:03;;;;;;;9.88;7.35;;;15.00;67.10;;;;;;5072125;28;20353;-74
2021/04/19 10:40:29;;;;;;;11.48;9.05;;;15.00;67.60;;;;;;5072116;28;20036;-74
2021/04/19 10:43:08;;;;;;;10.80;7.97;;;15.30;67.30;;;;;;5051955;28;20032;-75
2021/04/19 10:45:33;;;;;;;5.97;3.17;;;15.80;66.80;;;;;;5051523;28;20032;-75
2021/04/19 10:48:34;;;;;;;10.52;7.45;;;16.40;66.40;;;;;;5050563;28;20115;-74
2021/04/19 10:51:22;;;;;;;11.55;7.32;;;17.10;63.80;;;;;;5049260;28;20112;-75
2021/04/19 10:53:48;;;;;;;12.60;8.65;;;17.40;59.70;;;;;;5049432;28;20037;-76
2021/04/19 10:56:24;;;;;;;8.82;6.00;;;17.50;58.80;;;;;;5050650;28;20283;-75
2021/04/19 10:59:11;;;;;;;10.57;8.07;;;17.60;60.40;;;;;;5050837;28;20024;-73
2021/04/19 11:01:39;;;;;;;10.52;7.97;;;17.70;56.80;;;;;;5051894;28;20025;-73
2021/04/19 11:04:07;;;;;;;8.30;6.10;;;17.60;56.30;;;;;;5050890;28;20064;-75
2021/04/19 11:06:37;;;;;;;11.70;7.47;;;17.60;59.90;;;;;;5052100;28;20017;-74
2021/04/19 11:09:07;;;;;;;8.35;6.35;;;17.60;57.70;;;;;;5050772;28;20146;-74
2021/04/19 11:11:46;;;;;;;9.45;7.35;;;17.80;60.10;;;;;;5051643;28;20381;-74
2021/04/19 11:14:27;;;;;;;7.70;4.60;;;18.00;58.30;;;;;;5051335;28;20116;-74
2021/04/19 11:16:56;;;;;;;6.53;3.40;;;17.90;59.60;;;;;;5055335;28;20021;-74
2021/04/19 11:19:32;;;;;;;9.82;6.72;;;17.70;62.20;;;;;;5055591;28;20027;-74
2021/04/19 11:21:58;;;;;;;7.40;4.93;;;17.70;58.00;;;;;;5054388;28;20017;-74
2021/04/19 11:24:38;;;;;;;9.50;5.97;;;17.50;58.50;;;;;;5055460;28;20050;-75
2021/04/19 11:27:06;;;;;;;9.23;7.47;;;17.40;58.50;;;;;;5055637;28;20151;-75
2021/04/19 11:29:42;;;;;;;6.65;4.32;;;17.30;58.50;;;;;;5059126;28;20020;-75
2021/04/19 11:32:10;;;;;;;5.00;2.45;;;17.30;60.90;;;;;;5072480;28;20519;-75
2021/04/19 11:34:39;;;;;;;9.85;7.47;;;17.40;63.70;;;;;;5074960;28;20049;-75
2021/04/19 11:37:06;;;;;;;8.38;6.13;;;17.70;58.10;;;;;;5073954;28;20017;-74
2021/04/19 11:39:39;;;;;;;8.45;6.53;;;17.80;58.80;;;;;;5074954;28;20027;-75
2021/04/19 11:42:25;;;;;;;9.32;7.20;;;17.80;57.30;;;;;;5074195;28;20031;-74
2021/04/19 11:44:52;;;;;;;8.35;6.35;;;17.70;55.40;;;;;;5074950;28;20031;-75
2021/04/19 11:47:18;;;;;;;6.63;4.75;;;17.30;56.40;;;;;;5074801;28;20036;-75
2021/04/19 11:49:47;;;;;;;11.05;5.75;;;16.90;59.60;;;;;;5076281;28;20464;-76
2021/04/19 11:52:12;;;;;;;8.73;6.25;;;16.60;58.50;;;;;;5073622;28;20108;-75
2021/04/19 11:54:38;;;;;;;8.00;5.85;;;16.40;58.70;;;;;;5075216;28;20116;-75
2021/04/19 11:57:04;;;;;;;6.30;3.40;;;16.20;61.20;;;;;;5065625;28;20426;-75
2021/04/19 11:59:30;;;;;;;8.15;5.82;;;16.10;64.20;;;;;;5063197;28;20414;-75
2021/04/19 12:01:56;;;;;;;8.27;5.40;;;16.00;63.10;;;;;;5073069;28;20096;-75
2021/04/19 12:04:21;;;;;;;8.02;5.30;;;16.00;64.30;;;;;;5073072;28;20044;-74
2021/04/19 12:06:47;;;;;;;9.48;6.93;;;15.90;61.60;;;;;;5075076;28;20055;-75
2021/04/19 12:09:12;;;;;;;10.40;7.60;;;15.80;60.90;;;;;;5074903;28;20042;-75
2021/04/19 12:11:38;;;;;;;7.32;5.65;;;15.80;62.10;;;;;;5074895;28;20029;-77
2021/04/19 12:14:04;;;;;;;8.43;5.35;;;15.80;61.80;;;;;;5073026;28;20037;-77
2021/04/19 12:16:30;;;;;;;9.65;4.88;;;15.80;65.00;;;;;;5066635;28;20052;-76
2021/04/19 12:18:56;;;;;;;9.85;6.68;;;15.70;65.00;;;;;;5054871;28;20065;-76
2021/04/19 12:21:22;;;;;;;9.50;7.72;;;15.80;63.30;;;;;;5072596;28;20013;-77
2021/04/19 12:23:48;;;;;;;8.45;7.15;;;15.70;60.60;;;;;;5073209;28;20399;-75
2021/04/19 12:26:14;;;;;;;10.23;6.43;;;15.70;62.10;;;;;;5072783;28;20024;-77
2021/04/19 12:28:40;;;;;;;9.32;6.65;;;15.70;62.50;;;;;;5074340;28;20012;-76
2021/04/19 12:31:07;;;;;;;9.75;8.07;;;15.80;62.50;;;;;;5074071;28;20150;-77
2021/04/19 12:33:32;;;;;;;9.75;7.03;;;15.70;62.70;;;;;;5073680;28;20056;-77
2021/04/19 12:35:58;;;;;;;11.85;8.52;;;15.70;62.40;;;;;;5074339;28;20469;-76
2021/04/19 12:38:24;;;;;;;9.82;6.88;;;15.70;61.00;;;;;;5053960;28;20143;-75
2021/04/19 12:40:49;;;;;;;10.82;7.57;;;15.70;63.60;;;;;;5063210;28;20027;-77
2021/04/19 12:43:15;;;;;;;11.48;6.50;;;15.70;60.90;;;;;;5072015;28;20020;-75
2021/04/19 12:45:44;;;;;;;9.25;6.25;;;15.60;59.70;;;;;;5063707;28;20039;-75
2021/04/19 12:48:12;;;;;;;9.50;6.93;;;15.70;60.50;;;;;;5062178;28;20102;-77
2021/04/19 12:50:38;;;;;;;10.45;7.05;;;15.70;62.20;;;;;;5059563;28;20473;-77
2021/04/19 12:53:08;;;;;;;9.32;7.68;;;15.90;60.30;;;;;;5073063;28;20473;-76
2021/04/19 12:55:35;;;;;;;9.47;5.90;;;15.90;60.00;;;;;;5071931;28;20024;-75
2021/04/19 12:58:01;;;;;;;9.45;8.25;;;15.90;61.80;;;;;;5055397;28;20025;-75
2021/04/19 13:00:27;;;;;;;12.75;9.30;;;16.00;60.60;;;;;;5053193;28;20075;-74
2021/04/19 13:02:53;;;;;;;12.50;8.35;;;16.10;59.90;;;;;;5068564;28;20028;-76